Time;durP1;ratioP1;P1;durP2;ratioP2;P2;SDS_P1;SDS_P2;PMS_P1;PMS_P2;Temp;Humidity;BMP_temperature;BMP_pressure;BME280_temperature;BME280_humidity;BME280_pressure;Samples;Min_cycle;Max_cycle;Signal;HPM_P1;HPM_P2
2021/01/11 00:02:16;;;;;;;13.57;6.55;;;15.90;57.80;;;;;;4977142;28;20049;-69
2021/01/11 00:04:42;;;;;;;9.88;5.68;;;16.00;57.40;;;;;;4983461;28;20035;-70
2021/01/11 00:07:10;;;;;;;17.33;6.43;;;16.10;57.20;;;;;;4988658;28;20427;-70
2021/01/11 00:09:37;;;;;;;18.75;6.82;;;16.00;58.30;;;;;;4997114;28;20068;-69
2021/01/11 00:12:05;;;;;;;18.10;7.28;;;15.90;58.80;;;;;;4988389;28;20046;-68
2021/01/11 00:14:32;;;;;;;11.38;5.93;;;16.00;59.40;;;;;;4985204;28;20018;-69
2021/01/11 00:16:59;;;;;;;12.05;6.03;;;16.00;58.60;;;;;;4980697;28;20045;-70
2021/01/11 00:19:25;;;;;;;17.65;7.32;;;16.00;59.20;;;;;;4992332;28;20034;-69
2021/01/11 00:21:52;;;;;;;14.32;6.78;;;16.00;59.80;;;;;;4987038;28;20030;-68
2021/01/11 00:24:19;;;;;;;16.63;7.65;;;16.00;59.10;;;;;;4989232;28;20034;-69
2021/01/11 00:26:58;;;;;;;19.98;7.55;;;15.90;60.30;;;;;;4992241;28;20034;-69
2021/01/11 00:29:25;;;;;;;18.33;9.25;;;15.80;60.50;;;;;;4992980;28;20018;-68
2021/01/11 00:31:51;;;;;;;29.92;10.00;;;15.70;60.80;;;;;;4985951;28;20031;-68
2021/01/11 00:34:18;;;;;;;22.25;7.32;;;15.70;61.10;;;;;;4980860;28;20023;-68
2021/01/11 00:36:50;;;;;;;12.98;7.15;;;15.70;60.60;;;;;;4987310;28;20392;-70
2021/01/11 00:39:16;;;;;;;16.40;8.70;;;15.80;59.90;;;;;;4993695;28;20030;-68
2021/01/11 00:41:43;;;;;;;20.77;9.70;;;15.90;59.30;;;;;;4995193;28;20411;-68
2021/01/11 00:44:09;;;;;;;18.70;9.80;;;15.90;59.00;;;;;;4984565;28;20384;-69
2021/01/11 00:46:36;;;;;;;17.63;7.47;;;15.90;59.30;;;;;;4987110;28;20054;-69
2021/01/11 00:49:02;;;;;;;22.38;9.02;;;15.90;59.40;;;;;;4990024;28;20925;-70
2021/01/11 00:51:29;;;;;;;18.17;9.23;;;15.90;59.40;;;;;;4987317;28;20356;-69
2021/01/11 00:53:55;;;;;;;18.65;8.27;;;15.90;59.20;;;;;;4982311;28;20050;-69
2021/01/11 00:56:21;;;;;;;19.10;7.65;;;15.80;59.90;;;;;;4990881;28;20026;-71
2021/01/11 00:58:48;;;;;;;18.30;9.00;;;15.80;59.50;;;;;;4985984;28;20045;-69
2021/01/11 01:01:15;;;;;;;19.60;8.82;;;15.90;58.70;;;;;;4985113;28;20046;-70
2021/01/11 01:03:42;;;;;;;14.98;9.13;;;15.80;59.90;;;;;;4986742;28;20464;-70
2021/01/11 01:06:10;;;;;;;16.95;7.82;;;15.70;59.50;;;;;;4990985;28;20045;-70
2021/01/11 01:08:37;;;;;;;15.70;7.75;;;15.70;59.10;;;;;;4991585;28;20040;-70
2021/01/11 01:11:04;;;;;;;13.52;8.52;;;15.80;58.60;;;;;;4991960;28;20368;-72
2021/01/11 01:13:30;;;;;;;19.85;12.60;;;15.80;58.80;;;;;;4994923;28;20026;-69
2021/01/11 01:15:57;;;;;;;12.70;7.35;;;15.70;58.80;;;;;;4995200;28;20038;-69
2021/01/11 01:18:23;;;;;;;15.80;9.18;;;15.70;58.50;;;;;;4993576;28;20034;-69
2021/01/11 01:20:49;;;;;;;12.70;7.10;;;15.70;59.30;;;;;;4996399;28;20113;-69
2021/01/11 01:23:16;;;;;;;12.10;7.57;;;15.60;58.70;;;;;;4985582;28;20042;-69
2021/01/11 01:25:42;;;;;;;17.33;8.52;;;15.70;58.70;;;;;;5003534;28;20056;-71
2021/01/11 01:28:09;;;;;;;13.75;7.15;;;15.70;58.80;;;;;;5002938;28;20027;-69
2021/01/11 01:30:35;;;;;;;14.68;8.10;;;15.70;58.90;;;;;;5005626;28;20109;-69
2021/01/11 01:33:02;;;;;;;20.63;8.00;;;15.70;58.80;;;;;;4982568;28;20072;-69
2021/01/11 01:35:29;;;;;;;16.33;8.02;;;15.60;58.50;;;;;;4994047;28;20019;-69
2021/01/11 01:37:56;;;;;;;16.70;8.35;;;15.60;58.40;;;;;;4997540;28;20428;-68
2021/01/11 01:40:25;;;;;;;21.60;8.80;;;15.50;58.70;;;;;;4993610;28;20584;-71
2021/01/11 01:42:52;;;;;;;21.20;6.90;;;15.60;57.60;;;;;;4996530;28;20372;-71
2021/01/11 01:45:19;;;;;;;14.68;8.02;;;15.50;58.50;;;;;;4988375;28;20038;-70
2021/01/11 01:47:47;;;;;;;15.40;7.80;;;15.50;57.80;;;;;;4992772;28;20026;-71
2021/01/11 01:50:14;;;;;;;23.52;9.30;;;15.50;58.20;;;;;;4991827;28;20019;-70
2021/01/11 01:52:43;;;;;;;17.65;9.48;;;15.50;58.30;;;;;;4984582;28;20042;-69
2021/01/11 01:55:12;;;;;;;15.00;7.18;;;15.40;58.60;;;;;;4987800;28;20027;-69
2021/01/11 01:57:38;;;;;;;14.80;8.40;;;15.40;59.10;;;;;;4994557;28;20034;-70
2021/01/11 02:00:06;;;;;;;19.33;6.97;;;15.30;59.40;;;;;;4997159;28;20052;-69
2021/01/11 02:02:32;;;;;;;25.02;10.13;;;15.20;59.80;;;;;;4995268;28;20038;-69
2021/01/11 02:04:59;;;;;;;16.52;7.75;;;15.20;59.60;;;;;;4993282;28;20357;-69
2021/01/11 02:07:47;;;;;;;36.38;10.30;;;15.20;59.90;;;;;;4992650;28;20042;-69
2021/01/11 02:10:25;;;;;;;21.60;8.07;;;15.30;58.40;;;;;;4995044;28;20041;-70
2021/01/11 02:13:17;;;;;;;17.52;8.57;;;15.40;58.50;;;;;;4995954;28;20076;-69
2021/01/11 02:15:52;;;;;;;13.60;8.13;;;15.40;58.50;;;;;;4995929;28;20031;-71
2021/01/11 02:18:45;;;;;;;17.73;9.05;;;15.40;58.30;;;;;;4986633;28;20040;-69
2021/01/11 02:21:58;;;;;;;28.48;10.60;;;15.30;58.80;;;;;;4997778;28;20022;-68
2021/01/11 02:24:43;;;;;;;18.13;7.95;;;15.20;58.90;;;;;;4986220;28;20032;-69
2021/01/11 02:27:19;;;;;;;12.88;8.02;;;15.00;59.40;;;;;;4992325;28;20034;-68
2021/01/11 02:30:22;;;;;;;22.88;9.48;;;15.00;60.60;;;;;;4986636;28;20022;-69
2021/01/11 02:33:08;;;;;;;;;;;15.10;59.90;;;;;;4987477;28;20041;-68
2021/01/11 02:36:03;;;;;;;17.63;9.52;;;15.10;58.90;;;;;;4992246;28;19989;-69
2021/01/11 02:38:30;;;;;;;22.02;9.38;;;15.00;59.20;;;;;;4986201;28;20072;-68
2021/01/11 02:40:57;;;;;;;15.90;9.07;;;15.00;60.50;;;;;;4988751;28;20364;-69
2021/01/11 02:43:23;;;;;;;20.00;10.88;;;15.00;60.00;;;;;;4983500;28;20105;-69
2021/01/11 02:45:49;;;;;;;20.35;9.50;;;15.00;60.50;;;;;;5003719;28;20026;-69
2021/01/11 02:48:30;;;;;;;17.63;8.60;;;14.90;61.30;;;;;;4987900;28;20033;-69
2021/01/11 02:51:14;;;;;;;20.15;8.82;;;14.90;61.00;;;;;;4989583;28;20363;-69
2021/01/11 02:53:52;;;;;;;20.38;9.07;;;14.90;60.20;;;;;;4984037;28;20088;-69
2021/01/11 02:56:41;;;;;;;19.60;9.23;;;15.00;59.70;;;;;;4986889;28;20758;-69
2021/01/11 02:59:16;;;;;;;19.02;8.13;;;15.00;60.20;;;;;;4995133;28;20034;-69
2021/01/11 03:02:01;;;;;;;17.55;8.73;;;15.00;61.60;;;;;;4993735;28;20038;-69
2021/01/11 03:04:30;;;;;;;17.77;9.13;;;15.00;60.90;;;;;;4994535;28;20033;-69
2021/01/11 03:07:02;;;;;;;16.45;9.25;;;15.10;60.70;;;;;;4999064;28;20105;-69
2021/01/11 03:09:36;;;;;;;17.25;9.75;;;15.10;60.80;;;;;;4994330;28;20027;-69
2021/01/11 03:12:02;;;;;;;25.65;11.27;;;15.10;61.20;;;;;;5000435;28;20081;-69
2021/01/11 03:14:29;;;;;;;19.17;8.57;;;15.10;61.60;;;;;;4986926;28;20023;-69
2021/01/11 03:16:55;;;;;;;16.75;9.23;;;15.00;61.90;;;;;;5001042;28;20030;-71
2021/01/11 03:19:22;;;;;;;19.58;10.23;;;14.90;62.00;;;;;;4985439;28;20036;-72
2021/01/11 03:21:50;;;;;;;18.67;9.63;;;15.00;62.50;;;;;;4993829;28;20026;-70
2021/01/11 03:24:18;;;;;;;18.88;10.70;;;15.00;62.20;;;;;;4992508;28;20037;-70
2021/01/11 03:26:45;;;;;;;18.77;8.95;;;15.00;62.40;;;;;;4996348;28;20086;-74
2021/01/11 03:29:15;;;;;;;17.67;9.13;;;15.00;62.50;;;;;;5001879;28;20031;-71
2021/01/11 03:31:42;;;;;;;16.00;8.95;;;15.10;62.30;;;;;;5003566;28;20022;-70
2021/01/11 03:34:10;;;;;;;16.02;8.45;;;15.10;62.50;;;;;;4994777;28;20023;-71
2021/01/11 03:36:38;;;;;;;18.83;10.35;;;15.10;62.40;;;;;;4996334;28;20042;-71
2021/01/11 03:39:09;;;;;;;30.98;10.18;;;15.10;62.70;;;;;;4983529;28;20482;-71
2021/01/11 03:41:37;;;;;;;19.95;10.65;;;15.00;65.30;;;;;;4994583;28;20084;-71
2021/01/11 03:44:04;;;;;;;19.02;10.75;;;15.00;64.50;;;;;;4991152;28;20029;-71
2021/01/11 03:46:31;;;;;;;19.27;10.13;;;15.10;64.10;;;;;;4993741;28;20034;-70
2021/01/11 03:48:57;;;;;;;13.95;10.00;;;15.10;64.40;;;;;;4991564;28;20527;-71
2021/01/11 03:51:24;;;;;;;15.68;10.88;;;15.20;63.70;;;;;;4994068;28;20030;-71
2021/01/11 03:53:51;;;;;;;18.02;11.43;;;15.20;63.70;;;;;;4994974;28;20022;-72
2021/01/11 03:56:17;;;;;;;22.27;12.65;;;15.30;64.20;;;;;;4986831;28;20102;-73
2021/01/11 03:58:44;;;;;;;17.70;12.80;;;15.10;65.60;;;;;;4976118;28;20050;-72
2021/01/11 04:01:10;;;;;;;19.58;12.68;;;15.10;65.00;;;;;;4986958;28;20022;-71
2021/01/11 04:03:36;;;;;;;26.40;13.43;;;15.20;64.70;;;;;;4993844;28;20049;-71
2021/01/11 04:06:04;;;;;;;27.48;15.18;;;15.20;65.30;;;;;;4993775;28;20478;-71
2021/01/11 04:08:30;;;;;;;22.50;14.43;;;15.10;65.90;;;;;;4995080;28;20034;-70
2021/01/11 04:10:57;;;;;;;21.00;14.55;;;15.00;65.90;;;;;;4995470;28;20469;-71
2021/01/11 04:13:23;;;;;;;24.55;13.77;;;14.90;65.90;;;;;;4993683;28;20022;-70
2021/01/11 04:15:50;;;;;;;18.52;13.50;;;14.80;65.60;;;;;;4994658;28;20022;-68
2021/01/11 04:18:17;;;;;;;18.90;12.27;;;14.80;65.00;;;;;;4990055;28;20033;-71
2021/01/11 04:20:43;;;;;;;25.40;14.65;;;14.90;64.60;;;;;;4998558;28;20037;-71
2021/01/11 04:23:09;;;;;;;15.70;11.50;;;14.90;64.00;;;;;;4998153;28;20512;-72
2021/01/11 04:25:36;;;;;;;18.42;13.13;;;15.00;63.60;;;;;;4997855;28;20511;-72
2021/01/11 04:28:04;;;;;;;23.65;13.65;;;15.00;63.50;;;;;;4998140;28;20042;-71
2021/01/11 04:30:31;;;;;;;18.02;12.00;;;15.10;63.00;;;;;;4996750;28;20356;-72
2021/01/11 04:32:57;;;;;;;27.77;17.45;;;15.10;62.90;;;;;;4999313;28;20014;-71
2021/01/11 04:35:28;;;;;;;15.07;12.00;;;15.20;62.60;;;;;;4993884;28;20018;-70
2021/01/11 04:37:55;;;;;;;19.95;14.20;;;15.20;62.90;;;;;;4991295;28;20022;-70
2021/01/11 04:40:22;;;;;;;18.10;12.48;;;15.20;62.80;;;;;;4995609;28;20088;-69
2021/01/11 04:43:09;;;;;;;19.67;11.63;;;15.20;63.00;;;;;;4988914;28;20026;-70
2021/01/11 04:45:36;;;;;;;16.77;11.40;;;15.20;63.00;;;;;;4990541;28;20045;-69
2021/01/11 04:48:03;;;;;;;18.25;11.30;;;15.20;62.90;;;;;;4995903;28;20029;-70
2021/01/11 04:50:30;;;;;;;23.40;14.13;;;15.20;62.90;;;;;;4992641;28;20026;-70
2021/01/11 04:52:56;;;;;;;23.92;13.75;;;15.30;63.00;;;;;;4985465;28;20511;-72
2021/01/11 04:55:23;;;;;;;24.40;13.52;;;15.20;63.10;;;;;;4995705;28;20026;-70
2021/01/11 04:57:55;;;;;;;18.27;12.95;;;15.30;63.00;;;;;;4993232;28;20027;-70
2021/01/11 05:00:27;;;;;;;17.77;12.65;;;15.20;63.00;;;;;;4991361;28;20026;-71
2021/01/11 05:03:05;;;;;;;20.33;13.70;;;15.20;63.10;;;;;;4997804;28;20026;-70
2021/01/11 05:05:36;;;;;;;20.42;13.77;;;15.20;63.00;;;;;;4997579;28;20036;-70
2021/01/11 05:08:03;;;;;;;19.05;12.55;;;15.10;63.90;;;;;;4986166;28;20031;-70
2021/01/11 05:10:35;;;;;;;24.17;14.73;;;15.10;63.60;;;;;;4993973;28;20026;-70
2021/01/11 05:13:07;;;;;;;21.50;13.73;;;15.10;62.80;;;;;;4997923;28;20034;-69
2021/01/11 05:15:41;;;;;;;23.90;13.32;;;15.10;62.80;;;;;;4997938;28;20022;-71
2021/01/11 05:18:15;;;;;;;23.80;14.05;;;15.10;62.90;;;;;;4989676;28;20413;-70
2021/01/11 05:20:42;;;;;;;21.02;13.02;;;15.10;62.60;;;;;;4995812;28;20027;-70
2021/01/11 05:23:16;;;;;;;17.10;12.00;;;15.10;62.80;;;;;;4996781;28;20389;-70
2021/01/11 05:25:44;;;;;;;22.30;11.98;;;15.10;62.90;;;;;;4991612;28;20106;-70
2021/01/11 05:28:16;;;;;;;14.20;12.07;;;15.10;62.60;;;;;;4983574;28;20081;-70
2021/01/11 05:30:46;;;;;;;24.05;13.00;;;15.00;62.40;;;;;;4997236;28;20522;-72
2021/01/11 05:33:24;;;;;;;24.30;13.90;;;15.00;62.20;;;;;;4997275;28;20022;-70
2021/01/11 05:36:06;;;;;;;20.33;12.57;;;14.90;62.00;;;;;;4997032;28;20026;-70
2021/01/11 05:38:35;;;;;;;19.05;12.20;;;14.90;61.80;;;;;;4993916;28;20122;-70
2021/01/11 05:41:19;;;;;;;19.20;13.90;;;14.80;62.10;;;;;;4996330;28;20088;-70
2021/01/11 05:44:08;;;;;;;21.40;15.30;;;14.40;63.00;;;;;;4995431;28;20092;-70
2021/01/11 05:46:35;;;;;;;23.85;13.82;;;14.30;62.60;;;;;;4991194;28;20084;-70
2021/01/11 05:49:07;;;;;;;18.85;14.10;;;14.20;63.10;;;;;;4996393;28;20088;-70
2021/01/11 05:51:35;;;;;;;22.15;15.95;;;14.20;62.70;;;;;;4996281;28;20038;-70
2021/01/11 05:54:03;;;;;;;24.13;16.48;;;14.20;62.20;;;;;;4996194;28;20524;-70
2021/01/11 05:56:56;;;;;;;27.27;15.73;;;14.10;61.80;;;;;;4996096;28;20033;-69
2021/01/11 05:59:23;;;;;;;16.35;12.40;;;14.10;61.40;;;;;;4994689;28;20088;-71
2021/01/11 06:01:50;;;;;;;14.50;10.88;;;14.00;62.20;;;;;;4994123;28;20022;-69
2021/01/11 06:04:16;;;;;;;18.48;13.15;;;13.90;62.50;;;;;;4991127;28;20035;-73
2021/01/11 06:06:44;;;;;;;14.45;11.32;;;13.80;62.80;;;;;;4992137;28;20026;-74
2021/01/11 06:09:10;;;;;;;19.95;11.85;;;13.60;62.90;;;;;;4998649;28;20026;-70
2021/01/11 06:11:37;;;;;;;19.45;11.15;;;13.60;62.90;;;;;;4992790;28;20027;-69
2021/01/11 06:14:05;;;;;;;18.08;8.70;;;13.40;63.60;;;;;;4992656;28;20031;-69
2021/01/11 06:16:32;;;;;;;22.13;12.43;;;13.40;63.20;;;;;;4996700;28;20456;-69
2021/01/11 06:19:00;;;;;;;18.65;12.93;;;13.40;63.20;;;;;;4988477;28;20038;-70
2021/01/11 06:21:26;;;;;;;18.23;12.82;;;13.30;62.80;;;;;;4984050;28;20193;-70
2021/01/11 06:24:15;;;;;;;19.08;13.02;;;13.20;62.60;;;;;;4994737;28;20030;-69
2021/01/11 06:26:43;;;;;;;15.77;11.15;;;13.10;61.30;;;;;;4997039;28;20073;-69
2021/01/11 06:29:32;;;;;;;22.58;14.43;;;13.00;63.10;;;;;;4996872;28;20109;-68
2021/01/11 06:32:25;;;;;;;28.35;15.07;;;12.90;62.50;;;;;;5002019;28;20030;-69
2021/01/11 06:34:52;;;;;;;23.17;13.90;;;13.00;62.70;;;;;;4997475;28;20034;-74
2021/01/11 06:37:24;;;;;;;19.08;13.82;;;12.80;62.60;;;;;;4996714;28;20037;-69
2021/01/11 06:39:50;;;;;;;20.23;13.77;;;12.80;63.00;;;;;;4996025;28;20114;-70
2021/01/11 06:42:17;;;;;;;19.83;13.32;;;12.60;63.40;;;;;;4996221;28;20062;-70
2021/01/11 06:44:50;;;;;;;20.02;13.27;;;12.50;63.60;;;;;;4996514;28;20352;-69
2021/01/11 06:47:26;;;;;;;;;;;12.50;63.20;;;;;;4987439;28;20025;-68
2021/01/11 06:50:03;;;;;;;17.25;13.95;;;12.40;62.80;;;;;;4976705;28;19910;-69
2021/01/11 06:52:35;;;;;;;21.58;13.93;;;12.30;62.60;;;;;;4986683;28;20464;-69
2021/01/11 06:55:13;;;;;;;24.70;14.18;;;12.20;64.30;;;;;;4995790;28;20022;-69
2021/01/11 06:57:40;;;;;;;24.45;15.98;;;12.10;62.70;;;;;;4995858;28;20030;-68
2021/01/11 07:00:08;;;;;;;20.85;14.63;;;12.10;62.90;;;;;;4995375;28;20042;-68
2021/01/11 07:02:42;;;;;;;26.08;15.60;;;12.00;62.80;;;;;;4993683;28;20026;-70
2021/01/11 07:05:35;;;;;;;23.73;14.52;;;12.10;63.00;;;;;;4992008;28;20033;-69
2021/01/11 07:08:01;;;;;;;19.50;14.00;;;12.00;63.40;;;;;;4994240;28;20376;-70
2021/01/11 07:10:28;;;;;;;24.45;14.35;;;11.80;64.20;;;;;;4996106;28;20030;-71
2021/01/11 07:13:19;;;;;;;24.33;16.08;;;11.70;64.80;;;;;;4995867;28;20026;-70
2021/01/11 07:15:52;;;;;;;24.25;16.17;;;11.70;63.70;;;;;;4992888;28;20065;-69
2021/01/11 07:18:36;;;;;;;;;;;11.70;63.60;;;;;;4995687;28;20033;-69
2021/01/11 07:21:23;;;;;;;29.58;15.73;;;11.70;63.80;;;;;;4995586;28;19910;-70
2021/01/11 07:23:51;;;;;;;23.70;17.00;;;11.70;63.80;;;;;;4995771;28;20088;-69
2021/01/11 07:26:23;;;;;;;27.98;17.52;;;11.70;64.50;;;;;;4995752;28;20046;-69
2021/01/11 07:29:11;;;;;;;25.05;14.98;;;11.60;63.60;;;;;;4993222;28;20121;-69
2021/01/11 07:31:39;;;;;;;23.63;15.20;;;11.40;64.60;;;;;;5011534;28;20038;-70
2021/01/11 07:34:10;;;;;;;21.30;17.00;;;11.40;64.70;;;;;;4995334;28;20029;-69
2021/01/11 07:36:47;;;;;;;24.30;16.55;;;11.40;64.20;;;;;;4995167;28;20476;-69
2021/01/11 07:39:14;;;;;;;26.65;17.52;;;11.40;64.30;;;;;;4992403;28;20448;-71
2021/01/11 07:41:42;;;;;;;25.27;18.95;;;11.40;64.10;;;;;;4991840;28;20078;-69
2021/01/11 07:44:16;;;;;;;27.42;18.55;;;11.60;65.20;;;;;;4982698;28;20356;-69
2021/01/11 07:46:51;;;;;;;31.52;19.38;;;11.60;65.80;;;;;;4991852;28;20034;-70
2021/01/11 07:49:17;;;;;;;32.83;20.65;;;11.60;64.80;;;;;;4994491;28;20468;-72
2021/01/11 07:51:46;;;;;;;26.48;19.30;;;11.50;64.70;;;;;;4995529;28;20032;-70
2021/01/11 07:54:18;;;;;;;25.17;18.27;;;11.40;64.40;;;;;;4994605;28;20078;-69
2021/01/11 07:56:45;;;;;;;;;;;11.40;65.30;;;;;;4994487;28;20025;-70
2021/01/11 07:59:11;;;;;;;34.65;21.92;;;11.40;65.60;;;;;;4994516;28;19918;-70
2021/01/11 08:01:40;;;;;;;29.52;20.30;;;11.40;66.00;;;;;;4992116;28;20112;-69
2021/01/11 08:04:09;;;;;;;32.30;20.38;;;11.50;66.00;;;;;;4992953;28;20037;-69
2021/01/11 08:06:48;;;;;;;30.75;21.02;;;11.50;65.50;;;;;;4990954;28;20030;-69
2021/01/11 08:09:16;;;;;;;27.65;18.80;;;11.40;65.60;;;;;;4986136;28;20023;-70
2021/01/11 08:11:42;;;;;;;27.65;20.50;;;11.30;66.10;;;;;;4993806;28;20376;-69
2021/01/11 08:14:10;;;;;;;29.88;20.30;;;11.10;65.90;;;;;;4991138;28;20015;-69
2021/01/11 08:16:40;;;;;;;28.60;20.05;;;11.20;66.40;;;;;;4994694;28;20022;-69
2021/01/11 08:19:07;;;;;;;28.33;19.25;;;11.40;67.30;;;;;;4983112;28;20030;-69
2021/01/11 08:21:34;;;;;;;27.95;19.02;;;11.60;67.10;;;;;;4994528;28;20448;-69
2021/01/11 08:24:04;;;;;;;27.83;19.55;;;11.60;66.20;;;;;;4994713;28;20026;-69
2021/01/11 08:26:33;;;;;;;26.05;19.05;;;11.50;66.60;;;;;;4993217;28;20027;-70
2021/01/11 08:29:00;;;;;;;26.38;17.67;;;11.40;66.60;;;;;;4992532;28;20031;-70
2021/01/11 08:31:28;;;;;;;32.33;18.17;;;11.20;66.90;;;;;;4995163;28;20033;-69
2021/01/11 08:33:57;;;;;;;23.65;16.50;;;11.20;67.60;;;;;;4995578;28;20034;-70
2021/01/11 08:36:24;;;;;;;29.75;17.83;;;11.10;66.60;;;;;;4994398;28;20030;-70
2021/01/11 08:39:12;;;;;;;26.80;17.00;;;11.10;67.80;;;;;;4995153;28;20120;-70
2021/01/11 08:41:48;;;;;;;28.83;17.10;;;11.20;67.00;;;;;;4997514;28;20357;-70
2021/01/11 08:44:29;;;;;;;24.15;17.52;;;11.20;66.90;;;;;;4976772;28;20394;-71
2021/01/11 08:47:00;;;;;;;27.40;17.48;;;11.20;67.10;;;;;;4995351;28;20097;-69
2021/01/11 08:49:27;;;;;;;31.52;17.98;;;11.20;67.60;;;;;;4995137;28;20157;-70
2021/01/11 08:51:54;;;;;;;34.42;19.08;;;11.20;68.50;;;;;;4994993;28;20026;-69
2021/01/11 08:54:28;;;;;;;31.58;19.65;;;11.40;68.00;;;;;;4995100;28;20022;-71
2021/01/11 08:57:07;;;;;;;25.20;19.20;;;11.40;68.50;;;;;;4994905;28;20061;-69
2021/01/11 08:59:33;;;;;;;39.63;21.75;;;11.40;67.40;;;;;;4994132;28;20121;-69
2021/01/11 09:02:00;;;;;;;29.88;19.73;;;11.40;68.50;;;;;;4997567;28;20037;-70
2021/01/11 09:04:36;;;;;;;27.40;18.10;;;11.40;67.90;;;;;;4998812;28;20360;-70
2021/01/11 09:07:05;;;;;;;26.40;18.15;;;11.40;69.00;;;;;;4998251;28;20034;-69
2021/01/11 09:09:33;;;;;;;27.55;18.55;;;11.30;67.40;;;;;;4998229;28;20116;-71
2021/01/11 09:12:03;;;;;;;30.65;19.23;;;11.20;67.70;;;;;;5003294;28;20103;-69
2021/01/11 09:14:31;;;;;;;27.55;18.73;;;11.10;68.10;;;;;;4983583;28;20023;-69
2021/01/11 09:17:00;;;;;;;28.77;18.23;;;11.30;68.80;;;;;;4997883;28;20100;-69
2021/01/11 09:19:26;;;;;;;30.42;18.67;;;11.20;68.30;;;;;;4996790;28;20073;-69
2021/01/11 09:22:23;;;;;;;31.55;21.00;;;11.20;68.50;;;;;;4997656;28;20076;-69
2021/01/11 09:24:49;;;;;;;39.20;19.88;;;11.10;68.10;;;;;;4998635;28;20115;-69
2021/01/11 09:27:16;;;;;;;33.28;19.40;;;11.00;68.80;;;;;;4997668;28;20076;-70
2021/01/11 09:29:43;;;;;;;26.38;18.20;;;11.20;69.40;;;;;;4996895;28;20041;-69
2021/01/11 09:32:09;;;;;;;32.88;18.25;;;11.10;68.30;;;;;;4994837;28;20026;-69
2021/01/11 09:34:36;;;;;;;28.90;19.40;;;11.00;69.30;;;;;;4997068;28;20026;-69
2021/01/11 09:37:02;;;;;;;29.02;18.13;;;10.90;68.60;;;;;;4996862;28;20033;-70
2021/01/11 09:39:28;;;;;;;33.65;17.73;;;11.00;69.20;;;;;;4997663;28;20056;-69
2021/01/11 09:41:59;;;;;;;29.60;19.02;;;11.10;69.40;;;;;;4996209;28;20502;-69
2021/01/11 09:44:25;;;;;;;29.05;20.23;;;11.10;68.80;;;;;;4977407;28;20038;-69
2021/01/11 09:46:54;;;;;;;29.52;19.55;;;11.10;69.20;;;;;;4984242;28;20066;-69
2021/01/11 09:49:21;;;;;;;28.83;19.48;;;11.10;69.30;;;;;;4999383;28;20018;-70
2021/01/11 09:51:47;;;;;;;35.78;19.33;;;11.00;69.40;;;;;;4999660;28;20385;-69
2021/01/11 09:54:14;;;;;;;28.98;19.65;;;10.90;69.00;;;;;;4997177;28;20022;-69
2021/01/11 09:56:41;;;;;;;33.45;20.25;;;11.00;69.40;;;;;;4997643;28;20033;-68
2021/01/11 09:59:09;;;;;;;29.83;20.48;;;11.10;69.20;;;;;;4997987;28;20027;-71
2021/01/11 10:01:46;;;;;;;28.95;19.40;;;11.00;69.70;;;;;;4997793;28;20430;-70
2021/01/11 10:04:14;;;;;;;29.63;20.38;;;10.90;68.60;;;;;;4998091;28;20356;-70
2021/01/11 10:06:49;;;;;;;33.63;20.42;;;10.70;69.10;;;;;;4997318;28;20018;-69
2021/01/11 10:09:20;;;;;;;36.35;21.30;;;10.70;70.50;;;;;;4997643;28;20030;-68
2021/01/11 10:11:50;;;;;;;31.08;20.55;;;10.80;70.10;;;;;;4997721;28;20029;-69
2021/01/11 10:14:16;;;;;;;29.38;18.65;;;10.70;69.30;;;;;;4996421;28;20030;-69
2021/01/11 10:16:44;;;;;;;32.28;20.80;;;10.70;69.30;;;;;;4995920;28;20057;-69
2021/01/11 10:19:14;;;;;;;31.40;21.38;;;10.80;69.80;;;;;;4984363;28;20125;-69
2021/01/11 10:21:41;;;;;;;32.60;22.27;;;10.80;69.60;;;;;;4996238;28;20034;-69
2021/01/11 10:24:08;;;;;;;35.28;20.27;;;10.70;69.60;;;;;;4997213;28;20101;-69
2021/01/11 10:26:35;;;;;;;32.92;22.40;;;10.50;69.50;;;;;;4997944;28;20015;-71
2021/01/11 10:29:02;;;;;;;35.95;22.17;;;10.50;70.40;;;;;;4997523;28;20080;-68
2021/01/11 10:31:29;;;;;;;39.25;24.15;;;10.40;70.30;;;;;;4997026;28;20105;-70
2021/01/11 10:33:55;;;;;;;29.92;22.48;;;10.50;70.20;;;;;;4997033;28;20038;-70
2021/01/11 10:36:21;;;;;;;36.72;21.05;;;10.50;70.40;;;;;;4996785;28;20098;-72
2021/01/11 10:38:48;;;;;;;34.88;21.27;;;10.60;70.00;;;;;;4997051;28;20101;-69
2021/01/11 10:41:20;;;;;;;39.30;21.17;;;10.60;70.20;;;;;;4997059;28;20023;-70
2021/01/11 10:43:47;;;;;;;32.80;22.52;;;10.60;70.50;;;;;;4997161;28;20431;-69
2021/01/11 10:46:17;;;;;;;32.42;22.98;;;10.60;69.90;;;;;;4996676;28;20060;-69
2021/01/11 10:48:44;;;;;;;32.72;20.92;;;10.40;70.20;;;;;;4996705;28;20038;-69
2021/01/11 10:51:12;;;;;;;32.83;21.38;;;10.50;70.70;;;;;;4996254;28;20536;-69
2021/01/11 10:53:40;;;;;;;36.92;21.65;;;10.50;70.10;;;;;;4998973;28;20098;-70
2021/01/11 10:56:08;;;;;;;36.88;22.30;;;10.50;70.30;;;;;;4999147;28;20018;-69
2021/01/11 10:58:38;;;;;;;34.95;23.05;;;10.60;70.40;;;;;;4997073;28;20030;-70
2021/01/11 11:01:10;;;;;;;30.80;22.00;;;10.60;70.50;;;;;;4996541;28;20024;-70
2021/01/11 11:03:37;;;;;;;37.75;21.63;;;10.50;70.10;;;;;;4996286;28;20467;-69
2021/01/11 11:06:03;;;;;;;30.00;22.75;;;10.40;70.50;;;;;;4983308;28;20048;-70
2021/01/11 11:08:30;;;;;;;33.10;21.55;;;10.20;70.30;;;;;;4996333;28;20026;-69
2021/01/11 11:10:56;;;;;;;36.38;20.80;;;10.20;71.60;;;;;;4989947;28;20046;-69
2021/01/11 11:13:24;;;;;;;35.75;22.25;;;10.40;71.30;;;;;;4996386;28;20450;-69
2021/01/11 11:15:51;;;;;;;31.95;21.95;;;10.40;70.80;;;;;;4997538;28;20349;-70
2021/01/11 11:18:17;;;;;;;29.40;23.00;;;10.30;71.00;;;;;;4991006;28;20030;-71
2021/01/11 11:20:45;;;;;;;35.67;22.30;;;10.40;70.40;;;;;;4999730;28;20033;-70
2021/01/11 11:23:12;;;;;;;29.50;21.02;;;10.20;70.40;;;;;;4997810;28;20086;-68
2021/01/11 11:25:45;;;;;;;34.60;21.70;;;10.10;71.40;;;;;;4994953;28;20034;-68
2021/01/11 11:28:14;;;;;;;36.40;21.33;;;10.00;71.40;;;;;;4995908;28;20092;-67
2021/01/11 11:30:43;;;;;;;29.33;18.75;;;9.90;70.90;;;;;;4994684;28;20085;-71
2021/01/11 11:33:10;;;;;;;36.92;21.88;;;9.90;71.70;;;;;;5006308;28;20027;-70
2021/01/11 11:35:41;;;;;;;32.67;22.77;;;9.90;70.80;;;;;;4996132;28;20027;-70
2021/01/11 11:38:10;;;;;;;31.23;19.83;;;10.10;70.70;;;;;;4995982;28;20031;-70
2021/01/11 11:40:41;;;;;;;33.67;22.08;;;10.10;70.40;;;;;;4994752;28;20049;-70
2021/01/11 11:43:08;;;;;;;46.65;22.58;;;10.10;70.60;;;;;;4989743;28;20503;-70
2021/01/11 11:45:34;;;;;;;31.10;21.77;;;10.10;70.90;;;;;;4980577;28;20040;-69
2021/01/11 11:48:01;;;;;;;36.30;21.17;;;10.20;70.60;;;;;;4993651;28;20022;-70
2021/01/11 11:50:27;;;;;;;31.10;22.30;;;10.00;70.00;;;;;;4993288;28;20025;-69
2021/01/11 11:52:54;;;;;;;36.83;22.08;;;10.00;70.50;;;;;;4995110;28;20077;-70
2021/01/11 11:55:20;;;;;;;32.10;22.52;;;9.90;71.20;;;;;;4995185;28;20029;-70
2021/01/11 11:57:47;;;;;;;29.73;19.23;;;9.70;71.30;;;;;;4996588;28;20049;-75
2021/01/11 12:00:16;;;;;;;31.25;20.77;;;9.60;71.90;;;;;;4998026;28;20417;-71
2021/01/11 12:02:43;;;;;;;29.88;17.73;;;9.50;72.20;;;;;;4994220;28;20026;-71
2021/01/11 12:05:11;;;;;;;22.90;16.13;;;9.50;72.40;;;;;;4995303;28;20452;-70
2021/01/11 12:07:38;;;;;;;30.95;19.33;;;9.40;72.50;;;;;;4995102;28;20034;-70
2021/01/11 12:10:07;;;;;;;27.52;19.55;;;9.50;71.60;;;;;;4994975;28;20035;-70
2021/01/11 12:12:33;;;;;;;29.52;18.48;;;9.50;70.50;;;;;;4998355;28;20026;-70
2021/01/11 12:15:02;;;;;;;28.50;20.23;;;9.40;70.20;;;;;;5006137;28;20077;-70
2021/01/11 12:17:29;;;;;;;28.73;18.75;;;9.40;70.60;;;;;;4994557;28;20018;-70
2021/01/11 12:19:56;;;;;;;28.55;17.92;;;9.30;70.60;;;;;;4990219;28;20084;-70
2021/01/11 12:22:22;;;;;;;26.80;17.70;;;9.20;71.30;;;;;;4995429;28;20018;-70
2021/01/11 12:24:49;;;;;;;23.98;15.73;;;9.10;71.40;;;;;;4994805;28;20038;-70
2021/01/11 12:27:15;;;;;;;28.23;19.45;;;9.10;71.50;;;;;;5009403;28;20041;-70
2021/01/11 12:29:42;;;;;;;36.10;22.33;;;9.20;71.20;;;;;;5014962;28;20448;-70
2021/01/11 12:32:09;;;;;;;32.70;21.67;;;9.20;70.40;;;;;;5003528;28;20070;-70
2021/01/11 12:34:40;;;;;;;37.40;22.45;;;9.10;70.50;;;;;;4995126;28;20088;-69
2021/01/11 12:37:07;;;;;;;37.03;21.90;;;9.10;71.20;;;;;;4998215;28;20109;-70
2021/01/11 12:39:34;;;;;;;37.17;20.52;;;9.10;70.90;;;;;;4998970;28;20035;-70
2021/01/11 12:42:00;;;;;;;27.90;19.77;;;9.00;71.10;;;;;;4997539;28;20118;-70
2021/01/11 12:44:27;;;;;;;29.33;18.33;;;9.00;71.20;;;;;;4998755;28;20030;-72
2021/01/11 12:46:55;;;;;;;35.53;20.73;;;9.00;70.90;;;;;;4997925;28;20073;-70